createdAt,value
2019-05-29T00:02:10.048Z,10.00
2019-05-29T00:04:42.623Z,10.01
2019-05-29T00:07:14.237Z,10.02
2019-05-29T00:09:44.359Z,10.03
2019-05-29T00:12:19.606Z,10.01
2019-05-29T00:14:50.468Z,9.92
2019-05-29T00:17:20.214Z,9.91
2019-05-29T00:19:49.814Z,9.88
2019-05-29T00:22:22.052Z,9.86
2019-05-29T00:24:51.936Z,9.82
2019-05-29T00:27:21.898Z,9.84
2019-05-29T00:29:51.719Z,9.86
2019-05-29T00:32:25.004Z,9.88
2019-05-29T00:34:56.518Z,9.86
2019-05-29T00:37:27.121Z,9.87
2019-05-29T00:39:56.880Z,9.83
2019-05-29T00:42:26.770Z,9.83
2019-05-29T00:44:56.706Z,9.86
2019-05-29T00:47:28.075Z,9.82
2019-05-29T00:49:57.572Z,9.79
2019-05-29T00:52:27.535Z,9.76
2019-05-29T00:55:02.830Z,9.78
2019-05-29T00:57:32.581Z,9.68
2019-05-29T01:00:03.801Z,9.59
2019-05-29T01:02:36.783Z,9.57
2019-05-29T01:05:09.836Z,9.56
2019-05-29T01:07:42.072Z,9.60
2019-05-29T01:10:16.684Z,9.61
2019-05-29T01:12:48.269Z,9.55
2019-05-29T01:15:18.081Z,9.53
2019-05-29T01:17:49.101Z,9.52
2019-05-29T01:20:19.998Z,9.51
2019-05-29T01:22:51.372Z,9.47
2019-05-29T01:25:22.708Z,9.37
2019-05-29T01:27:55.602Z,9.34
2019-05-29T01:30:27.382Z,9.24
2019-05-29T01:32:59.456Z,9.26
2019-05-29T01:35:29.964Z,9.21
2019-05-29T01:38:00.316Z,9.18
2019-05-29T01:40:31.727Z,9.23
2019-05-29T01:43:03.877Z,9.25
2019-05-29T01:45:36.157Z,9.25
2019-05-29T01:48:07.087Z,9.20
2019-05-29T01:50:38.526Z,9.19
2019-05-29T01:53:10.829Z,9.16
2019-05-29T01:55:41.740Z,9.17
2019-05-29T01:58:11.678Z,9.11
2019-05-29T02:00:44.040Z,9.13
2019-05-29T02:03:14.005Z,9.13
2019-05-29T02:05:45.344Z,9.09
2019-05-29T02:08:20.059Z,9.07
2019-05-29T02:10:50.007Z,9.06
2019-05-29T02:13:21.354Z,9.09
2019-05-29T02:15:51.514Z,9.09
2019-05-29T02:18:25.005Z,9.06
2019-05-29T02:20:58.227Z,9.12
2019-05-29T02:23:29.663Z,9.10
2019-05-29T02:26:00.903Z,9.02
2019-05-29T02:28:30.779Z,9.00
2019-05-29T02:31:03.404Z,8.97
2019-05-29T02:33:35.306Z,8.97
2019-05-29T02:36:05.238Z,8.97
2019-05-29T02:38:35.705Z,9.03
2019-05-29T02:41:07.551Z,9.04
2019-05-29T02:43:39.855Z,8.99
2019-05-29T02:46:11.818Z,8.96
2019-05-29T02:48:42.237Z,8.99
2019-05-29T02:51:12.414Z,8.87
2019-05-29T02:53:44.909Z,8.91
2019-05-29T02:56:14.675Z,8.92
2019-05-29T02:58:44.539Z,8.96
2019-05-29T03:01:15.313Z,8.99
2019-05-29T03:03:48.235Z,8.90
2019-05-29T03:06:17.760Z,9.02
2019-05-29T03:08:49.470Z,9.02
2019-05-29T03:11:22.897Z,9.03
2019-05-29T03:13:53.459Z,8.95
2019-05-29T03:16:24.348Z,8.90
2019-05-29T03:18:56.885Z,8.96
2019-05-29T03:21:28.403Z,9.00
2019-05-29T03:23:58.321Z,8.90
2019-05-29T03:26:32.834Z,8.83
2019-05-29T03:29:02.516Z,8.78
2019-05-29T03:31:41.872Z,8.96
2019-05-29T03:34:06.063Z,8.82
2019-05-29T03:36:47.376Z,8.80
2019-05-29T03:39:14.343Z,8.83
2019-05-29T03:41:45.009Z,8.83
2019-05-29T03:44:15.240Z,8.85
2019-05-29T03:46:47.671Z,8.86
2019-05-29T03:49:19.536Z,8.88
2019-05-29T03:51:52.555Z,8.94
2019-05-29T03:54:22.176Z,8.83
2019-05-29T03:56:53.096Z,8.97
2019-05-29T03:59:22.936Z,9.01
2019-05-29T04:01:52.815Z,7.88
2019-05-29T04:04:26.771Z,9.11
2019-05-29T04:06:56.755Z,9.03
2019-05-29T04:09:27.316Z,9.01
2019-05-29T04:11:57.042Z,8.99
2019-05-29T04:14:27.612Z,8.97
2019-05-29T04:17:00.410Z,9.01
2019-05-29T04:19:34.864Z,9.01
2019-05-29T04:22:09.660Z,9.06
2019-05-29T04:24:43.633Z,9.05
2019-05-29T04:27:14.408Z,9.17
2019-05-29T04:29:44.621Z,9.21
2019-05-29T04:32:14.435Z,9.10
2019-05-29T04:34:44.068Z,9.14
2019-05-29T04:37:14.752Z,9.20
2019-05-29T04:39:46.542Z,9.34
2019-05-29T04:42:16.306Z,9.44
2019-05-29T04:44:46.112Z,9.42
2019-05-29T04:47:15.745Z,9.42
2019-05-29T04:49:46.963Z,9.43
2019-05-29T04:52:17.146Z,9.41
2019-05-29T04:54:48.578Z,9.38
2019-05-29T04:57:18.536Z,9.57
2019-05-29T04:59:52.020Z,9.62
2019-05-29T05:02:21.800Z,9.51
2019-05-29T05:04:54.153Z,9.18
2019-05-29T05:07:23.943Z,9.59
2019-05-29T05:09:54.546Z,9.71
2019-05-29T05:12:24.330Z,9.70
2019-05-29T05:14:54.085Z,9.80
2019-05-29T05:17:26.458Z,10.16
2019-05-29T05:19:55.452Z,10.33
2019-05-29T05:22:25.164Z,10.36
2019-05-29T05:24:54.990Z,10.40
2019-05-29T05:27:25.230Z,10.61
2019-05-29T05:29:56.475Z,10.51
2019-05-29T05:32:28.143Z,10.54
2019-05-29T05:34:57.958Z,10.59
2019-05-29T05:37:28.122Z,10.68
2019-05-29T05:39:57.920Z,10.61
2019-05-29T05:42:28.634Z,10.56
2019-05-29T05:44:59.401Z,10.53
2019-05-29T05:47:43.393Z,10.40
2019-05-29T05:50:00.643Z,10.37
2019-05-29T05:52:31.184Z,10.22
2019-05-29T05:55:02.132Z,10.13
2019-05-29T05:57:33.543Z,10.07
2019-05-29T06:00:04.593Z,10.00
2019-05-29T06:02:34.354Z,10.04
2019-05-29T06:05:04.985Z,10.08
2019-05-29T06:07:35.996Z,10.01
2019-05-29T06:10:09.234Z,10.02
2019-05-29T06:12:39.055Z,9.92
2019-05-29T06:15:09.045Z,9.85
2019-05-29T06:17:38.881Z,9.85
2019-05-29T06:20:09.601Z,9.68
2019-05-29T06:22:39.591Z,9.69
2019-05-29T06:25:10.796Z,9.75
2019-05-29T06:27:41.779Z,9.84
2019-05-29T06:30:11.901Z,10.04
2019-05-29T06:32:41.670Z,10.03
2019-05-29T06:35:11.461Z,9.99
2019-05-29T06:37:42.006Z,9.93
2019-05-29T06:40:11.840Z,9.88
2019-05-29T06:42:42.023Z,9.96
2019-05-29T06:45:12.010Z,9.95
2019-05-29T06:47:42.785Z,9.97
2019-05-29T06:50:12.641Z,10.00
2019-05-29T06:52:43.526Z,10.04
2019-05-29T06:55:13.371Z,10.00
2019-05-29T06:57:44.500Z,10.04
2019-05-29T07:00:34.005Z,10.17
2019-05-29T07:02:46.918Z,10.25
2019-05-29T07:05:17.650Z,10.35
2019-05-29T07:07:47.467Z,10.43
2019-05-29T07:10:17.268Z,10.42
2019-05-29T07:12:47.751Z,10.24
2019-05-29T07:15:17.616Z,10.31
2019-05-29T07:17:49.769Z,10.24
2019-05-29T07:20:19.518Z,10.26
2019-05-29T07:22:49.374Z,9.97
2019-05-29T07:25:19.105Z,10.07
2019-05-29T07:27:49.496Z,10.08
2019-05-29T07:30:21.055Z,10.04
2019-05-29T07:32:57.468Z,10.04
2019-05-29T07:35:22.515Z,9.95
2019-05-29T07:37:52.291Z,9.97
2019-05-29T07:40:22.090Z,9.96
2019-05-29T07:42:56.583Z,9.95
2019-05-29T07:45:24.822Z,9.97
2019-05-29T07:47:55.533Z,10.06
2019-05-29T07:50:26.142Z,9.99
2019-05-29T07:52:59.469Z,9.96
2019-05-29T07:55:29.369Z,10.05
2019-05-29T07:57:59.211Z,10.14
2019-05-29T08:00:35.787Z,10.23
2019-05-29T08:03:00.872Z,10.24
2019-05-29T08:05:30.625Z,10.33
2019-05-29T08:08:00.538Z,10.44
2019-05-29T08:10:31.280Z,10.23
2019-05-29T08:13:01.921Z,10.21
2019-05-29T08:15:31.780Z,10.33
2019-05-29T08:18:01.723Z,10.41
2019-05-29T08:20:31.527Z,10.23
2019-05-29T08:23:02.036Z,10.19
2019-05-29T08:25:33.249Z,10.22
2019-05-29T08:28:04.363Z,10.22
2019-05-29T08:30:36.489Z,10.13
2019-05-29T08:33:06.310Z,10.04
2019-05-29T08:35:41.394Z,10.24
2019-05-29T08:38:13.265Z,10.20
2019-05-29T08:40:43.446Z,10.09
2019-05-29T08:43:13.213Z,10.13
2019-05-29T08:45:43.553Z,10.22
2019-05-29T08:48:13.256Z,10.28
2019-05-29T08:50:43.698Z,10.37
2019-05-29T08:53:13.679Z,10.24
2019-05-29T08:55:44.261Z,10.36
2019-05-29T08:58:14.199Z,10.33
2019-05-29T09:00:47.309Z,10.31
2019-05-29T09:03:17.231Z,10.30
2019-05-29T09:06:01.501Z,10.24
2019-05-29T09:08:22.404Z,10.26
2019-05-29T09:10:53.873Z,10.15
2019-05-29T09:13:23.745Z,10.12
2019-05-29T09:15:54.354Z,10.14
2019-05-29T09:18:27.939Z,10.17
2019-05-29T09:21:03.164Z,10.13
2019-05-29T09:23:32.067Z,10.14
2019-05-29T09:26:14.019Z,10.16
2019-05-29T09:28:35.658Z,10.31
2019-05-29T09:31:08.232Z,10.33
2019-05-29T09:33:37.984Z,10.38
2019-05-29T09:36:08.666Z,10.44
2019-05-29T09:38:38.265Z,10.53
2019-05-29T09:41:08.226Z,10.69
2019-05-29T09:43:57.757Z,10.67
2019-05-29T09:46:12.122Z,10.76
2019-05-29T09:48:49.698Z,10.87
2019-05-29T09:51:21.050Z,10.83
2019-05-29T09:53:48.668Z,10.87
2019-05-29T09:56:18.378Z,11.00
2019-05-29T09:58:48.177Z,11.13
2019-05-29T10:01:23.934Z,11.23
2019-05-29T10:03:55.339Z,11.37
2019-05-29T10:06:27.839Z,11.28
2019-05-29T10:08:59.937Z,11.32
2019-05-29T10:11:32.493Z,11.29
2019-05-29T10:14:05.054Z,11.48
2019-05-29T10:16:37.386Z,11.29
2019-05-29T10:19:08.679Z,11.09
2019-05-29T10:21:41.021Z,11.19
2019-05-29T10:24:10.226Z,11.14
2019-05-29T10:26:42.521Z,11.15
2019-05-29T10:29:12.317Z,11.14
2019-05-29T10:31:45.134Z,11.35
2019-05-29T10:34:14.792Z,11.33
2019-05-29T10:36:50.401Z,11.46
2019-05-29T10:39:18.670Z,11.53
2019-05-29T10:41:48.842Z,11.49
2019-05-29T10:44:20.434Z,11.55
2019-05-29T10:46:52.468Z,11.81
2019-05-29T10:49:24.461Z,11.97
2019-05-29T10:52:12.044Z,11.99
2019-05-29T10:54:26.491Z,12.07
2019-05-29T10:56:57.151Z,12.25
2019-05-29T10:59:26.969Z,12.29
2019-05-29T11:01:58.216Z,12.18
2019-05-29T11:04:28.379Z,12.24
2019-05-29T11:06:58.196Z,12.36
2019-05-29T11:09:40.969Z,12.16
2019-05-29T11:11:59.438Z,12.32
2019-05-29T11:14:29.235Z,12.17
2019-05-29T11:16:59.117Z,12.14
2019-05-29T11:19:28.914Z,12.17
2019-05-29T11:22:16.229Z,12.11
2019-05-29T11:24:32.981Z,12.16
2019-05-29T11:27:04.651Z,12.26
2019-05-29T11:29:35.066Z,12.18
2019-05-29T11:32:04.839Z,12.11
2019-05-29T11:34:34.534Z,12.31
2019-05-29T11:37:06.599Z,12.46
2019-05-29T11:39:37.295Z,12.32
2019-05-29T11:42:07.466Z,12.33
2019-05-29T11:44:39.538Z,12.39
2019-05-29T11:47:11.106Z,12.39
2019-05-29T11:49:40.889Z,12.39
2019-05-29T11:52:24.235Z,12.33
2019-05-29T11:54:44.718Z,12.27
2019-05-29T11:57:15.474Z,12.02
2019-05-29T11:59:45.240Z,11.82
2019-05-29T12:02:15.849Z,11.76
2019-05-29T12:04:47.160Z,11.57
2019-05-29T12:07:20.287Z,11.58
2019-05-29T12:09:51.285Z,11.66
2019-05-29T12:12:21.956Z,11.60
2019-05-29T12:15:00.638Z,11.70
2019-05-29T12:17:24.076Z,11.77
2019-05-29T12:19:59.802Z,11.97
2019-05-29T12:22:31.215Z,11.93
2019-05-29T12:25:02.987Z,11.90
2019-05-29T12:27:32.820Z,11.92
2019-05-29T12:30:03.255Z,11.72
2019-05-29T12:32:33.156Z,11.58
2019-05-29T12:35:03.860Z,11.71
2019-05-29T12:37:33.659Z,11.71
2019-05-29T12:40:05.806Z,11.71
2019-05-29T12:42:35.610Z,11.50
2019-05-29T12:45:09.095Z,11.56
2019-05-29T12:47:38.920Z,11.49
2019-05-29T12:50:14.405Z,11.36
2019-05-29T12:52:44.152Z,11.19
2019-05-29T12:55:14.277Z,11.12
2019-05-29T12:57:43.885Z,11.21
2019-05-29T13:00:21.272Z,11.06
2019-05-29T13:02:51.175Z,10.99
2019-05-29T13:05:21.240Z,11.03
2019-05-29T13:07:50.976Z,11.05
2019-05-29T13:10:30.729Z,10.89
2019-05-29T13:12:53.067Z,10.78
2019-05-29T13:15:24.281Z,10.69
2019-05-29T13:17:59.947Z,10.60
2019-05-29T13:20:25.574Z,10.63
2019-05-29T13:22:57.662Z,10.42
2019-05-29T13:25:27.581Z,10.43
2019-05-29T13:27:59.419Z,10.47
2019-05-29T13:30:29.860Z,10.49
2019-05-29T13:33:03.089Z,10.50
2019-05-29T13:35:31.800Z,10.49
2019-05-29T13:38:03.147Z,10.48
2019-05-29T13:40:35.995Z,10.49
2019-05-29T13:43:14.735Z,10.47
2019-05-29T13:45:37.931Z,10.48
2019-05-29T13:48:07.721Z,10.49
2019-05-29T13:50:39.389Z,10.36
2019-05-29T13:53:11.468Z,10.48
2019-05-29T13:55:42.387Z,10.57
2019-05-29T13:58:12.069Z,10.64
2019-05-29T14:00:43.975Z,10.85
2019-05-29T14:03:13.797Z,10.83
2019-05-29T14:05:48.780Z,10.86
2019-05-29T14:08:19.937Z,10.96
2019-05-29T14:10:54.340Z,10.99
2019-05-29T14:13:24.284Z,10.88
2019-05-29T14:15:54.072Z,10.69
2019-05-29T14:18:26.129Z,10.55
2019-05-29T14:20:56.521Z,10.64
2019-05-29T14:23:26.767Z,10.51
2019-05-29T14:26:00.421Z,10.42
2019-05-29T14:28:34.174Z,10.24
2019-05-29T14:31:04.033Z,10.20
2019-05-29T14:33:36.483Z,10.38
2019-05-29T14:36:07.540Z,10.54
2019-05-29T14:38:37.633Z,10.49
2019-05-29T14:41:09.949Z,10.54
2019-05-29T14:43:39.868Z,10.38
2019-05-29T14:46:10.162Z,10.16
2019-05-29T14:48:40.243Z,10.01
2019-05-29T14:51:10.582Z,10.02
2019-05-29T14:53:40.438Z,9.85
2019-05-29T14:56:12.684Z,9.94
2019-05-29T14:58:42.767Z,9.89
2019-05-29T15:01:13.300Z,9.81
2019-05-29T15:03:43.274Z,9.80
2019-05-29T15:06:17.656Z,9.87
2019-05-29T15:08:47.461Z,9.89
2019-05-29T15:11:17.030Z,9.86
2019-05-29T15:13:49.517Z,9.83
2019-05-29T15:16:20.212Z,9.87
2019-05-29T15:18:50.091Z,9.88
2019-05-29T15:21:21.501Z,10.00
2019-05-29T15:23:53.110Z,9.90
2019-05-29T15:26:24.327Z,9.93
2019-05-29T15:28:54.426Z,9.94
2019-05-29T15:31:25.228Z,9.86
2019-05-29T15:33:55.008Z,9.80
2019-05-29T15:36:26.654Z,9.74
2019-05-29T15:38:56.618Z,9.78
2019-05-29T15:41:27.326Z,9.69
2019-05-29T15:43:59.294Z,9.68
2019-05-29T15:46:30.592Z,9.71
2019-05-29T15:49:01.282Z,9.65
2019-05-29T15:51:31.088Z,9.45
2019-05-29T15:54:00.770Z,9.36
2019-05-29T15:56:30.532Z,9.29
2019-05-29T15:59:01.172Z,9.33
2019-05-29T16:01:30.961Z,9.10
2019-05-29T16:04:00.922Z,9.21
2019-05-29T16:06:30.665Z,9.15
2019-05-29T16:09:00.660Z,9.24
2019-05-29T16:11:30.365Z,9.25
2019-05-29T16:14:02.042Z,9.07
2019-05-29T16:16:31.744Z,8.96
2019-05-29T16:19:01.739Z,8.97
2019-05-29T16:21:32.654Z,8.91
2019-05-29T16:24:03.365Z,8.82
2019-05-29T16:26:33.621Z,8.95
2019-05-29T16:29:03.986Z,9.05
2019-05-29T16:31:33.789Z,9.16
2019-05-29T16:34:03.874Z,9.22
2019-05-29T16:36:33.754Z,9.16
2019-05-29T16:39:05.732Z,9.21
2019-05-29T16:41:35.529Z,9.26
2019-05-29T16:44:05.980Z,9.25
2019-05-29T16:46:35.776Z,9.21
2019-05-29T16:49:05.824Z,9.41
2019-05-29T16:51:35.572Z,9.38
2019-05-29T16:54:06.429Z,9.29
2019-05-29T16:56:37.177Z,9.21
2019-05-29T16:59:07.071Z,9.20
2019-05-29T17:01:36.915Z,9.15
2019-05-29T17:04:09.911Z,9.14
2019-05-29T17:06:40.554Z,9.07
2019-05-29T17:09:14.424Z,9.09
2019-05-29T17:11:46.810Z,9.02
2019-05-29T17:14:16.594Z,9.00
2019-05-29T17:16:46.374Z,9.02
2019-05-29T17:19:16.606Z,9.01
2019-05-29T17:21:46.786Z,8.95
2019-05-29T17:24:18.724Z,8.83
2019-05-29T17:26:48.986Z,8.82
2019-05-29T17:29:18.937Z,8.43
2019-05-29T17:31:48.693Z,8.87
2019-05-29T17:34:19.052Z,8.67
2019-05-29T17:36:51.708Z,8.64
2019-05-29T17:39:21.492Z,8.48
2019-05-29T17:41:52.192Z,8.59
2019-05-29T17:44:21.955Z,8.62
2019-05-29T17:46:51.669Z,8.49
2019-05-29T17:49:33.927Z,8.66
2019-05-29T17:51:57.727Z,8.60
2019-05-29T17:54:28.371Z,8.49
2019-05-29T17:56:58.877Z,8.44
2019-05-29T17:59:28.775Z,8.27
2019-05-29T18:01:58.687Z,8.27
2019-05-29T18:04:30.616Z,8.26
2019-05-29T18:07:00.365Z,8.27
2019-05-29T18:09:30.119Z,8.18
2019-05-29T18:12:00.727Z,8.08
2019-05-29T18:14:30.578Z,7.95
2019-05-29T18:17:00.414Z,7.91
2019-05-29T18:19:31.216Z,7.90
2019-05-29T18:22:00.978Z,7.85
2019-05-29T18:24:30.806Z,7.87
2019-05-29T18:27:03.003Z,7.76
2019-05-29T18:29:32.867Z,7.81
2019-05-29T18:32:04.381Z,7.95
2019-05-29T18:34:34.202Z,8.05
2019-05-29T18:37:07.759Z,7.85
2019-05-29T18:39:37.521Z,7.97
2019-05-29T18:42:08.482Z,7.89
2019-05-29T18:44:43.998Z,7.81
2019-05-29T18:47:13.885Z,7.70
2019-05-29T18:49:43.984Z,7.67
2019-05-29T18:52:14.231Z,7.79
2019-05-29T18:54:44.010Z,8.07
2019-05-29T18:57:16.307Z,8.19
2019-05-29T18:59:46.262Z,8.28
2019-05-29T19:02:17.056Z,8.35
2019-05-29T19:04:46.933Z,8.26
2019-05-29T19:07:16.757Z,8.33
2019-05-29T19:09:48.613Z,8.27
2019-05-29T19:12:21.630Z,8.39
2019-05-29T19:14:52.158Z,8.40
2019-05-29T19:17:23.909Z,8.23
2019-05-29T19:19:54.189Z,8.12
2019-05-29T19:22:29.049Z,7.85
2019-05-29T19:24:58.791Z,7.73
2019-05-29T19:27:39.162Z,7.61
2019-05-29T19:30:04.163Z,7.66
2019-05-29T19:32:36.622Z,7.66
2019-05-29T19:35:09.921Z,7.53
2019-05-29T19:37:40.230Z,7.50
2019-05-29T19:40:10.439Z,7.49
2019-05-29T19:42:40.126Z,7.47
2019-05-29T19:45:11.649Z,7.41
2019-05-29T19:47:41.448Z,7.30
2019-05-29T19:53:01.773Z,7.34
2019-05-29T19:55:34.905Z,6.52
2019-05-29T19:58:03.224Z,7.18
2019-05-29T20:00:36.534Z,7.19
2019-05-29T20:03:06.355Z,7.15
2019-05-29T20:05:37.047Z,7.14
2019-05-29T20:08:07.446Z,7.17
2019-05-29T20:10:44.821Z,7.18
2019-05-29T20:13:16.124Z,7.12
2019-05-29T20:15:46.785Z,7.08
2019-05-29T20:18:18.717Z,7.08
2019-05-29T20:20:51.783Z,7.13
2019-05-29T20:23:21.572Z,7.16
2019-05-29T20:25:51.370Z,7.21
2019-05-29T20:28:21.144Z,7.12
2019-05-29T20:30:51.829Z,7.10
2019-05-29T20:33:23.256Z,7.12
2019-05-29T20:35:53.497Z,7.16
2019-05-29T20:38:23.434Z,7.15
2019-05-29T20:40:53.237Z,7.22
2019-05-29T20:43:27.441Z,7.18
2019-05-29T20:45:57.254Z,7.19
2019-05-29T20:48:27.134Z,7.24
2019-05-29T20:50:56.952Z,7.26
2019-05-29T20:53:27.601Z,7.28
2019-05-29T20:55:57.358Z,7.26
2019-05-29T20:58:27.154Z,7.27
2019-05-29T21:00:56.916Z,7.31
2019-05-29T21:03:26.657Z,7.30
2019-05-29T21:05:56.434Z,7.29
2019-05-29T21:08:26.920Z,7.29
2019-05-29T21:10:57.057Z,7.26
2019-05-29T21:13:26.855Z,7.21
2019-05-29T21:15:56.658Z,7.14
2019-05-29T21:18:27.975Z,7.25
2019-05-29T21:20:57.948Z,7.31
2019-05-29T21:23:29.289Z,7.33
2019-05-29T21:26:01.619Z,7.39
2019-05-29T21:28:40.866Z,7.37
2019-05-29T21:31:03.544Z,7.34
2019-05-29T21:33:34.215Z,7.31
2019-05-29T21:36:04.817Z,7.32
2019-05-29T21:38:34.667Z,7.21
2019-05-29T21:41:04.561Z,7.18
2019-05-29T21:43:36.406Z,6.69
2019-05-29T21:46:08.634Z,7.19
2019-05-29T21:48:39.000Z,7.15
2019-05-29T21:51:09.400Z,7.19
2019-05-29T21:53:41.261Z,7.21
2019-05-29T21:56:11.929Z,7.22
2019-05-29T21:59:00.290Z,7.25
2019-05-29T22:01:15.873Z,7.24
2019-05-29T22:03:48.801Z,7.22
2019-05-29T22:06:21.429Z,7.19
2019-05-29T22:08:52.027Z,7.19
2019-05-29T22:11:21.864Z,7.22
2019-05-29T22:13:52.334Z,7.19
2019-05-29T22:16:24.683Z,7.22
2019-05-29T22:18:54.978Z,7.25
2019-05-29T22:21:24.784Z,7.24
2019-05-29T22:23:55.127Z,7.18
2019-05-29T22:26:27.616Z,7.18
2019-05-29T22:29:01.513Z,7.18
2019-05-29T22:31:30.603Z,7.22
2019-05-29T22:34:04.375Z,7.27
2019-05-29T22:36:36.153Z,7.15
2019-05-29T22:39:09.399Z,7.19
2019-05-29T22:41:39.192Z,7.18
2019-05-29T22:44:09.940Z,7.14
2019-05-29T22:46:40.016Z,7.19
2019-05-29T22:49:09.805Z,7.15
2019-05-29T22:51:41.589Z,7.15
2019-05-29T22:54:11.509Z,7.19
2019-05-29T22:56:41.377Z,7.14
2019-05-29T22:59:11.237Z,7.14
2019-05-29T23:01:41.056Z,7.16
2019-05-29T23:04:10.869Z,7.18
2019-05-29T23:06:40.718Z,7.16
2019-05-29T23:09:10.572Z,7.13
2019-05-29T23:11:40.330Z,7.12
2019-05-29T23:14:10.106Z,7.05
2019-05-29T23:16:39.915Z,7.06
2019-05-29T23:19:09.670Z,7.03
2019-05-29T23:21:39.503Z,6.97
2019-05-29T23:24:09.285Z,7.03
2019-05-29T23:26:39.121Z,7.01
2019-05-29T23:29:08.886Z,7.02
2019-05-29T23:31:38.650Z,6.94
2019-05-29T23:34:08.432Z,6.94
2019-05-29T23:36:38.217Z,6.88
2019-05-29T23:39:08.018Z,6.93
2019-05-29T23:41:37.751Z,6.92
2019-05-29T23:44:07.601Z,6.96
2019-05-29T23:46:37.387Z,6.93
2019-05-29T23:49:07.172Z,6.96
2019-05-29T23:51:36.982Z,6.98
2019-05-29T23:54:06.766Z,6.96
2019-05-29T23:56:36.556Z,6.97
2019-05-29T23:59:06.355Z,6.94
